Aviation Digital Data Service (ADDS)

Output produced by METARs form (0326 UTC 30 May 2017)
found at http://www.aviationweather.gov/adds/metars/
 
BKPR 300330Z 00000KT 9999 SCT080 09/07 Q1017 NOSIG
TAF BKPR 292330Z 3000/3024 VRB03KT CAVOK